Time;durP1;ratioP1;P1;durP2;ratioP2;P2;SDS_P1;SDS_P2;PMS_P1;PMS_P2;Temp;Humidity;BMP_temperature;BMP_pressure;BME280_temperature;BME280_humidity;BME280_pressure;Samples;Min_cycle;Max_cycle;Signal;HPM_P1;HPM_P2
2023/01/09 00:00:30;;;;;;;20.07;9.93;;;1.30;99.90;;;;;;4229154;28;20284;-61
2023/01/09 00:02:31;;;;;;;21.77;11.00;;;1.30;99.90;;;;;;4230187;28;20261;-59
2023/01/09 00:04:32;;;;;;;19.57;10.50;;;1.30;99.90;;;;;;4227751;28;20283;-59
2023/01/09 00:06:34;;;;;;;22.73;12.17;;;1.40;99.90;;;;;;4229330;28;20272;-61
2023/01/09 00:08:35;;;;;;;21.30;11.40;;;1.40;99.90;;;;;;4228463;28;20292;-59
2023/01/09 00:10:36;;;;;;;18.90;10.33;;;1.50;99.90;;;;;;4230178;28;20264;-61
2023/01/09 00:12:38;;;;;;;18.20;10.27;;;1.50;99.90;;;;;;4229185;28;20317;-62
2023/01/09 00:14:39;;;;;;;16.73;9.63;;;1.50;99.90;;;;;;4229914;28;20333;-61
2023/01/09 00:16:40;;;;;;;16.93;10.03;;;1.50;99.90;;;;;;4228519;28;20295;-61
2023/01/09 00:18:41;;;;;;;14.77;8.23;;;1.60;99.90;;;;;;4230148;28;20288;-61
2023/01/09 00:20:42;;;;;;;14.27;8.83;;;1.60;99.90;;;;;;4229047;28;20264;-61
2023/01/09 00:22:43;;;;;;;16.97;8.43;;;1.60;99.90;;;;;;4229317;28;20268;-61
2023/01/09 00:24:45;;;;;;;16.43;9.03;;;1.70;99.90;;;;;;4229044;28;20320;-59
2023/01/09 00:26:46;;;;;;;16.10;9.40;;;1.70;99.90;;;;;;4228779;28;20264;-60
2023/01/09 00:28:48;;;;;;;15.63;9.10;;;1.70;99.90;;;;;;4228829;28;20364;-60
2023/01/09 00:30:55;;;;;;;16.97;9.07;;;1.80;99.90;;;;;;4211684;28;20276;-61
2023/01/09 00:32:58;;;;;;;15.67;8.53;;;1.80;99.90;;;;;;4212794;28;20249;-60
2023/01/09 00:34:59;;;;;;;13.93;8.00;;;1.80;99.90;;;;;;4211697;28;20675;-65
2023/01/09 00:37:00;;;;;;;15.87;8.47;;;1.90;99.90;;;;;;4212840;28;20291;-62
2023/01/09 00:39:01;;;;;;;15.90;8.50;;;1.90;99.90;;;;;;4228015;28;20325;-60
2023/01/09 00:41:06;;;;;;;13.93;8.10;;;2.00;99.90;;;;;;4229443;28;20792;-60
2023/01/09 00:43:07;;;;;;;16.57;8.80;;;2.10;99.90;;;;;;4223552;28;20264;-62
2023/01/09 00:45:12;;;;;;;16.07;8.77;;;2.00;99.90;;;;;;4229479;28;20260;-60
2023/01/09 00:47:23;;;;;;;15.67;9.17;;;2.10;99.90;;;;;;4228491;28;20271;-61
2023/01/09 00:49:25;;;;;;;14.52;7.60;;;2.00;99.90;;;;;;4229546;28;20304;-61
2023/01/09 00:51:26;;;;;;;14.37;8.00;;;2.10;99.90;;;;;;4227959;28;20073;-59
2023/01/09 00:53:31;;;;;;;10.43;6.87;;;2.10;99.90;;;;;;4229334;28;20264;-62
2023/01/09 00:55:34;;;;;;;14.37;8.23;;;2.20;99.90;;;;;;4228746;28;20313;-59
2023/01/09 00:57:36;;;;;;;13.87;8.07;;;2.20;99.90;;;;;;4229484;28;20272;-60
2023/01/09 00:59:37;;;;;;;15.17;8.37;;;2.20;99.90;;;;;;4227989;28;20248;-58
2023/01/09 01:01:38;;;;;;;12.03;7.27;;;2.20;99.90;;;;;;4228828;28;20280;-61
2023/01/09 01:03:39;;;;;;;10.27;6.77;;;2.30;99.90;;;;;;4228472;28;20260;-60
2023/01/09 01:08:00;;;;;;;13.40;7.83;;;2.30;99.90;;;;;;4227661;28;20252;-58
2023/01/09 01:10:02;;;;;;;15.13;8.10;;;2.30;99.90;;;;;;4227067;28;20360;-60
2023/01/09 01:12:05;;;;;;;13.67;7.97;;;2.40;99.90;;;;;;4228608;28;20290;-61
2023/01/09 01:14:06;;;;;;;13.77;7.93;;;2.30;99.90;;;;;;4228105;28;20264;-61
2023/01/09 01:16:11;;;;;;;12.47;7.87;;;2.40;99.90;;;;;;4228627;28;20272;-60
2023/01/09 01:18:13;;;;;;;12.60;7.23;;;2.40;99.90;;;;;;4211094;28;20345;-60
2023/01/09 01:20:17;;;;;;;12.27;6.57;;;2.40;99.90;;;;;;4212267;28;20261;-62
2023/01/09 01:22:18;;;;;;;12.07;6.67;;;2.40;99.90;;;;;;4211364;28;20686;-57
2023/01/09 01:24:19;;;;;;;11.23;6.63;;;2.40;99.90;;;;;;4212598;28;20264;-60
2023/01/09 01:26:20;;;;;;;11.13;6.20;;;2.40;99.90;;;;;;4209771;28;20353;-59
2023/01/09 01:28:21;;;;;;;10.27;6.37;;;2.40;99.90;;;;;;4211517;28;20269;-58
2023/01/09 01:30:23;;;;;;;12.13;7.10;;;2.50;99.90;;;;;;4210734;28;20292;-60
2023/01/09 01:32:24;;;;;;;13.77;6.57;;;2.50;99.90;;;;;;4216497;28;20255;-62
2023/01/09 01:34:26;;;;;;;11.30;6.77;;;2.50;99.90;;;;;;4227747;28;20264;-62
2023/01/09 01:36:27;;;;;;;11.40;6.23;;;2.50;99.90;;;;;;4228920;28;20739;-62
2023/01/09 01:38:29;;;;;;;9.93;5.83;;;2.50;99.90;;;;;;4227671;28;20275;-62
2023/01/09 01:40:30;;;;;;;10.33;6.40;;;2.40;99.90;;;;;;4228255;28;20305;-61
2023/01/09 01:42:32;;;;;;;10.47;6.67;;;2.50;99.90;;;;;;4228028;28;20301;-61
2023/01/09 01:44:58;;;;;;;9.33;5.83;;;2.40;99.90;;;;;;4227690;28;20348;-61
2023/01/09 01:47:00;;;;;;;10.83;5.40;;;2.40;99.90;;;;;;4227891;28;20308;-59
2023/01/09 01:49:11;;;;;;;11.83;5.93;;;2.40;99.90;;;;;;4228255;28;20333;-57
2023/01/09 01:51:15;;;;;;;14.27;5.40;;;2.40;99.90;;;;;;4227960;28;20264;-62
2023/01/09 01:53:32;;;;;;;8.33;5.73;;;2.40;99.90;;;;;;4227932;28;20276;-63
2023/01/09 01:55:37;;;;;;;9.97;5.47;;;2.50;99.90;;;;;;4227979;28;20666;-58
2023/01/09 01:57:44;;;;;;;8.17;5.37;;;2.50;99.90;;;;;;4227975;28;20309;-60
2023/01/09 01:59:56;;;;;;;9.43;5.33;;;2.40;99.90;;;;;;4227693;28;20268;-62
2023/01/09 02:02:00;;;;;;;10.33;5.97;;;2.40;99.90;;;;;;4227196;28;20747;-61
2023/01/09 02:04:02;;;;;;;8.17;5.27;;;2.40;99.90;;;;;;4227817;28;20264;-62
2023/01/09 02:06:04;;;;;;;7.60;4.80;;;2.30;99.90;;;;;;4227593;28;20243;-63
2023/01/09 02:08:06;;;;;;;9.07;5.67;;;2.30;99.90;;;;;;4228117;28;20320;-60
2023/01/09 02:10:08;;;;;;;10.23;5.97;;;2.30;99.90;;;;;;4226556;28;20300;-62
2023/01/09 02:12:17;;;;;;;10.40;5.80;;;2.30;99.90;;;;;;4226582;28;20836;-60
2023/01/09 02:14:21;;;;;;;10.90;5.23;;;2.30;99.90;;;;;;4226722;28;20327;-61
2023/01/09 02:16:50;;;;;;;8.73;5.53;;;2.30;99.90;;;;;;4228333;28;20321;-62
2023/01/09 02:19:15;;;;;;;11.00;5.13;;;2.30;99.90;;;;;;4227417;28;20301;-64
2023/01/09 02:21:25;;;;;;;10.40;5.13;;;2.30;99.90;;;;;;4227657;28;20654;-61
2023/01/09 02:23:29;;;;;;;10.53;5.50;;;2.30;99.90;;;;;;4227453;28;20670;-62
2023/01/09 02:25:38;;;;;;;8.57;5.47;;;2.30;99.90;;;;;;4226581;28;20325;-62
2023/01/09 02:28:01;;;;;;;8.57;5.23;;;2.30;99.90;;;;;;4227484;28;20330;-62
2023/01/09 02:30:10;;;;;;;7.87;4.87;;;2.40;99.90;;;;;;4227353;28;20284;-59
2023/01/09 02:32:21;;;;;;;8.57;5.23;;;2.30;99.90;;;;;;4227686;28;20329;-63
2023/01/09 02:34:25;;;;;;;7.88;4.90;;;2.30;99.90;;;;;;4226592;28;20325;-57
2023/01/09 02:36:32;;;;;;;9.87;5.60;;;2.30;99.90;;;;;;4227483;28;20039;-57
2023/01/09 02:39:09;;;;;;;9.00;5.67;;;2.30;99.90;;;;;;4227419;28;20321;-63
2023/01/09 02:41:18;;;;;;;9.77;5.87;;;2.40;99.90;;;;;;4227927;28;20314;-62
2023/01/09 02:43:19;;;;;;;9.67;5.73;;;2.30;99.90;;;;;;4226405;28;20336;-60
2023/01/09 02:45:20;;;;;;;10.13;6.10;;;2.30;99.90;;;;;;4227431;28;20618;-57
2023/01/09 02:47:22;;;;;;;9.83;6.13;;;2.20;99.90;;;;;;4227214;28;20312;-59
2023/01/09 02:49:23;;;;;;;9.07;5.20;;;2.10;99.90;;;;;;4227062;28;20299;-58
2023/01/09 02:51:51;;;;;;;10.60;4.93;;;2.10;99.90;;;;;;4227338;28;20283;-61
2023/01/09 02:54:02;;;;;;;9.90;5.17;;;2.00;99.90;;;;;;4222671;28;20280;-63
2023/01/09 02:56:48;;;;;;;9.73;4.83;;;2.00;99.90;;;;;;4227582;28;20276;-62
2023/01/09 02:59:17;;;;;;;8.80;4.97;;;1.90;99.90;;;;;;4227206;28;20276;-62
2023/01/09 03:01:46;;;;;;;10.47;5.37;;;2.00;99.90;;;;;;4226559;28;20317;-63
2023/01/09 03:03:58;;;;;;;8.77;4.70;;;1.90;99.90;;;;;;4228046;28;20276;-60
2023/01/09 03:06:14;;;;;;;6.93;5.00;;;1.90;99.90;;;;;;4226692;28;20317;-61
2023/01/09 03:08:21;;;;;;;10.57;5.00;;;1.90;99.90;;;;;;4228031;28;20284;-64
2023/01/09 03:10:31;;;;;;;10.73;5.60;;;1.90;99.90;;;;;;4226726;28;20384;-64
2023/01/09 03:12:32;;;;;;;8.97;4.70;;;2.00;99.90;;;;;;4227460;28;20268;-60
2023/01/09 03:14:36;;;;;;;6.93;5.03;;;1.90;99.90;;;;;;4228152;28;20324;-63
2023/01/09 03:16:38;;;;;;;12.80;5.13;;;1.90;99.90;;;;;;4229601;28;20275;-63
2023/01/09 03:18:41;;;;;;;7.53;4.77;;;1.90;99.90;;;;;;4229936;28;20268;-61
2023/01/09 03:20:43;;;;;;;9.57;4.90;;;2.00;99.90;;;;;;4230892;28;20273;-62
2023/01/09 03:22:54;;;;;;;12.67;5.50;;;2.00;99.90;;;;;;4229734;28;20264;-61
2023/01/09 03:24:55;;;;;;;9.15;5.85;;;2.00;99.90;;;;;;4231349;28;20321;-57
2023/01/09 03:26:56;;;;;;;9.63;5.80;;;2.00;99.90;;;;;;4229714;28;20036;-63
2023/01/09 03:28:58;;;;;;;9.97;5.03;;;2.00;99.90;;;;;;4230851;28;20325;-64
2023/01/09 03:30:59;;;;;;;9.60;5.00;;;2.00;99.90;;;;;;4229228;28;20284;-62
2023/01/09 03:33:00;;;;;;;8.13;5.40;;;2.00;99.90;;;;;;4230602;28;20272;-64
2023/01/09 03:35:01;;;;;;;8.13;5.43;;;2.00;99.90;;;;;;4229739;28;20759;-60
2023/01/09 03:37:03;;;;;;;7.93;5.37;;;2.00;99.90;;;;;;4230206;28;20256;-63
2023/01/09 03:39:04;;;;;;;7.60;4.93;;;2.00;99.90;;;;;;4230227;28;20276;-64
2023/01/09 03:41:06;;;;;;;8.20;5.63;;;2.00;99.90;;;;;;4229430;28;20389;-64
2023/01/09 03:43:07;;;;;;;9.07;6.03;;;2.00;99.90;;;;;;4230407;28;20252;-61
2023/01/09 03:45:09;;;;;;;9.43;5.60;;;2.00;99.90;;;;;;4228641;28;20789;-61
2023/01/09 03:47:10;;;;;;;8.00;5.27;;;2.00;99.90;;;;;;4230576;28;20257;-63
2023/01/09 03:49:12;;;;;;;9.27;6.07;;;2.00;99.90;;;;;;4229445;28;20341;-61
2023/01/09 03:51:13;;;;;;;8.90;5.37;;;2.00;99.90;;;;;;4230099;28;20313;-59
2023/01/09 03:53:14;;;;;;;11.43;6.57;;;2.00;99.90;;;;;;4228699;28;20740;-61
2023/01/09 03:55:16;;;;;;;8.77;5.60;;;2.10;99.90;;;;;;4230813;28;20788;-61
2023/01/09 03:57:17;;;;;;;8.23;5.23;;;2.00;99.90;;;;;;4229084;28;20257;-60
2023/01/09 03:59:18;;;;;;;9.80;5.90;;;2.00;99.90;;;;;;4230116;28;20317;-60
2023/01/09 04:01:19;;;;;;;9.70;6.03;;;2.00;99.90;;;;;;4227449;28;20348;-61
2023/01/09 04:03:20;;;;;;;10.37;6.13;;;2.00;99.90;;;;;;4228123;28;20272;-62
2023/01/09 04:05:22;;;;;;;8.30;5.43;;;1.90;99.90;;;;;;4227495;28;20268;-60
2023/01/09 04:07:23;;;;;;;11.37;5.90;;;1.90;99.90;;;;;;4229251;28;20360;-62
2023/01/09 04:09:24;;;;;;;10.20;5.07;;;1.80;99.90;;;;;;4228924;28;20294;-61
2023/01/09 04:11:25;;;;;;;9.47;5.50;;;1.80;99.90;;;;;;4229317;28;20321;-62
2023/01/09 04:13:26;;;;;;;15.10;6.60;;;1.80;99.90;;;;;;4229096;28;20321;-59
2023/01/09 04:15:27;;;;;;;9.97;6.47;;;1.80;99.90;;;;;;4228871;28;20314;-58
2023/01/09 04:17:28;;;;;;;8.17;5.47;;;1.80;99.90;;;;;;4219601;28;20314;-61
2023/01/09 04:19:29;;;;;;;9.33;6.13;;;1.80;99.90;;;;;;4212075;28;20737;-61
2023/01/09 04:21:30;;;;;;;8.40;5.63;;;1.80;99.90;;;;;;4223966;28;20284;-61
2023/01/09 04:23:32;;;;;;;8.43;5.97;;;1.80;99.90;;;;;;4228869;28;20271;-60
2023/01/09 04:25:33;;;;;;;8.70;6.03;;;1.80;99.90;;;;;;4229379;28;20802;-61
2023/01/09 04:27:34;;;;;;;8.90;5.63;;;1.80;99.90;;;;;;4228744;28;20264;-59
2023/01/09 04:29:35;;;;;;;15.17;6.60;;;1.80;99.90;;;;;;4229716;28;20276;-59
2023/01/09 04:31:36;;;;;;;10.27;5.97;;;1.80;99.90;;;;;;4227900;28;20268;-62
2023/01/09 04:33:37;;;;;;;11.40;6.30;;;1.80;99.90;;;;;;4229705;28;20248;-62
2023/01/09 04:35:38;;;;;;;10.03;5.80;;;1.80;99.90;;;;;;4228449;28;20284;-59
2023/01/09 04:37:40;;;;;;;10.40;6.23;;;1.80;99.90;;;;;;4228710;28;20337;-61
2023/01/09 04:39:44;;;;;;;9.53;6.03;;;1.80;99.90;;;;;;4228794;28;20268;-59
2023/01/09 04:41:48;;;;;;;10.67;5.83;;;1.80;99.90;;;;;;4228556;28;20773;-62
2023/01/09 04:43:49;;;;;;;12.87;6.43;;;1.80;99.90;;;;;;4228958;28;20321;-63
2023/01/09 04:45:50;;;;;;;20.07;7.20;;;1.80;99.90;;;;;;4227162;28;20325;-60
2023/01/09 04:47:51;;;;;;;14.83;6.47;;;1.80;99.90;;;;;;4227816;28;20264;-57
2023/01/09 04:49:52;;;;;;;12.90;6.90;;;1.80;99.90;;;;;;4227940;28;20279;-60
2023/01/09 04:51:54;;;;;;;11.27;6.70;;;1.80;99.90;;;;;;4229261;28;20613;-60
2023/01/09 04:53:55;;;;;;;11.90;6.57;;;1.80;99.90;;;;;;4228225;28;20271;-61
2023/01/09 04:55:56;;;;;;;11.03;6.13;;;1.80;99.90;;;;;;4229475;28;20309;-60
2023/01/09 04:57:57;;;;;;;9.47;6.40;;;1.90;99.90;;;;;;4227280;28;20288;-60
2023/01/09 04:59:58;;;;;;;9.53;6.23;;;1.80;99.90;;;;;;4228804;28;20260;-60
2023/01/09 05:02:00;;;;;;;12.33;6.73;;;1.80;99.90;;;;;;4226435;28;20276;-63
2023/01/09 05:04:01;;;;;;;10.97;7.17;;;1.90;99.90;;;;;;4226636;28;20276;-59
2023/01/09 05:06:03;;;;;;;11.67;6.13;;;1.90;99.90;;;;;;4225632;28;20317;-60
2023/01/09 05:08:04;;;;;;;8.30;5.83;;;1.90;99.90;;;;;;4219093;28;20674;-63
2023/01/09 05:10:07;;;;;;;9.80;6.37;;;1.90;99.90;;;;;;4227677;28;20292;-57
2023/01/09 05:12:08;;;;;;;9.77;6.30;;;1.80;99.90;;;;;;4228049;28;20325;-65
2023/01/09 05:14:09;;;;;;;9.43;6.30;;;1.70;99.90;;;;;;4227920;28;20244;-61
2023/01/09 05:16:10;;;;;;;12.33;6.87;;;1.70;99.90;;;;;;4227338;28;20305;-60
2023/01/09 05:18:11;;;;;;;10.77;6.17;;;1.70;99.90;;;;;;4226751;28;20279;-60
2023/01/09 05:20:12;;;;;;;9.83;5.90;;;1.70;99.90;;;;;;4227567;28;20511;-54
2023/01/09 05:22:14;;;;;;;12.87;8.23;;;1.70;99.90;;;;;;4228406;28;20268;-59
2023/01/09 05:24:15;;;;;;;17.80;10.17;;;1.70;99.90;;;;;;4227479;28;20268;-60
2023/01/09 05:26:17;;;;;;;36.67;15.23;;;1.70;99.90;;;;;;4228941;28;20280;-59
2023/01/09 05:28:18;;;;;;;16.17;8.87;;;1.70;99.90;;;;;;4227405;28;20268;-59
2023/01/09 05:30:19;;;;;;;23.03;12.37;;;1.80;99.90;;;;;;4228538;28;20341;-58
2023/01/09 05:32:20;;;;;;;17.97;9.30;;;1.80;99.90;;;;;;4226791;28;20268;-63
2023/01/09 05:34:22;;;;;;;16.13;9.73;;;1.80;99.90;;;;;;4228361;28;20321;-60
2023/01/09 05:36:23;;;;;;;15.47;8.40;;;1.80;99.90;;;;;;4227031;28;20264;-60
2023/01/09 05:38:24;;;;;;;14.10;8.93;;;1.80;99.90;;;;;;4227893;28;20593;-59
2023/01/09 05:40:26;;;;;;;17.17;8.53;;;1.90;99.90;;;;;;4219844;28;20272;-60
2023/01/09 05:42:27;;;;;;;11.37;6.93;;;1.90;99.90;;;;;;4227030;28;20411;-61
2023/01/09 05:44:28;;;;;;;14.30;8.23;;;1.90;99.90;;;;;;4227047;28;20682;-61
2023/01/09 05:46:30;;;;;;;15.10;9.10;;;1.90;99.90;;;;;;4227265;28;20263;-57
2023/01/09 05:48:31;;;;;;;16.83;9.47;;;1.90;99.90;;;;;;4228002;28;20305;-59
2023/01/09 05:50:32;;;;;;;15.73;7.63;;;2.00;99.90;;;;;;4225134;28;20296;-60
2023/01/09 05:52:33;;;;;;;10.70;6.87;;;2.00;99.90;;;;;;4228171;28;20367;-59
2023/01/09 05:54:34;;;;;;;13.67;8.03;;;2.00;99.90;;;;;;4226624;28;20272;-61
2023/01/09 05:56:35;;;;;;;8.87;6.47;;;2.00;99.90;;;;;;4228420;28;20276;-59
2023/01/09 05:58:36;;;;;;;9.87;6.37;;;2.10;99.90;;;;;;4226504;28;20891;-60
2023/01/09 06:00:37;;;;;;;13.77;6.37;;;2.00;99.90;;;;;;4227797;28;20325;-60
2023/01/09 06:02:39;;;;;;;9.70;5.77;;;2.10;99.90;;;;;;4227087;28;20731;-61
2023/01/09 06:04:42;;;;;;;8.70;5.80;;;2.10;99.90;;;;;;4228269;28;20268;-60
2023/01/09 06:06:43;;;;;;;12.33;6.57;;;2.10;99.90;;;;;;4226901;28;20260;-60
2023/01/09 06:08:44;;;;;;;10.80;6.43;;;2.10;99.90;;;;;;4227953;28;20264;-60
2023/01/09 06:10:46;;;;;;;13.07;6.80;;;2.10;99.90;;;;;;4226915;28;20333;-59
2023/01/09 06:12:49;;;;;;;12.97;6.67;;;2.10;99.90;;;;;;4227381;28;20260;-59
2023/01/09 06:14:51;;;;;;;10.33;6.23;;;2.10;99.90;;;;;;4227285;28;20244;-63
2023/01/09 06:16:52;;;;;;;11.80;6.10;;;2.20;99.90;;;;;;4227008;28;20256;-60
2023/01/09 06:18:53;;;;;;;11.33;6.83;;;2.20;99.90;;;;;;4227515;28;20260;-63
2023/01/09 06:20:54;;;;;;;10.57;5.87;;;2.30;99.90;;;;;;4226396;28;20271;-63
2023/01/09 06:22:55;;;;;;;10.97;6.03;;;2.30;99.90;;;;;;4227598;28;20267;-62
2023/01/09 06:24:56;;;;;;;10.00;6.20;;;2.30;99.90;;;;;;4226565;28;20264;-59
2023/01/09 06:26:57;;;;;;;14.50;6.80;;;2.40;99.90;;;;;;4228068;28;20268;-61
2023/01/09 06:29:00;;;;;;;12.67;6.40;;;2.50;99.90;;;;;;4225538;28;20355;-61
2023/01/09 06:31:01;;;;;;;8.50;6.00;;;2.50;99.90;;;;;;4227220;28;20698;-61
2023/01/09 06:33:02;;;;;;;13.13;6.47;;;2.60;99.90;;;;;;4226396;28;20260;-61
2023/01/09 06:35:04;;;;;;;9.23;5.67;;;2.60;99.90;;;;;;4227412;28;20287;-60
2023/01/09 06:37:05;;;;;;;14.73;6.33;;;2.60;99.90;;;;;;4226679;28;20272;-59
2023/01/09 06:39:06;;;;;;;12.50;6.13;;;2.70;99.90;;;;;;4227868;28;20260;-61
2023/01/09 06:41:07;;;;;;;9.63;5.47;;;2.70;99.90;;;;;;4226799;28;20321;-61
2023/01/09 06:43:09;;;;;;;9.27;5.60;;;2.80;99.90;;;;;;4227379;28;20785;-59
2023/01/09 06:45:10;;;;;;;9.67;5.50;;;2.80;99.90;;;;;;4226950;28;20796;-59
2023/01/09 06:47:11;;;;;;;10.80;6.10;;;2.80;99.90;;;;;;4227165;28;20324;-61
2023/01/09 06:49:12;;;;;;;13.53;7.50;;;2.90;99.90;;;;;;4229773;28;20264;-60
2023/01/09 06:51:14;;;;;;;11.67;6.63;;;2.90;99.90;;;;;;4230106;28;20384;-58
2023/01/09 06:53:15;;;;;;;13.73;6.97;;;2.90;99.90;;;;;;4231001;28;20739;-60
2023/01/09 06:55:16;;;;;;;15.83;8.07;;;2.90;99.90;;;;;;4228288;28;20289;-59
2023/01/09 06:57:17;;;;;;;19.97;8.83;;;2.90;99.90;;;;;;4230990;27;20272;-59
2023/01/09 06:59:18;;;;;;;19.93;7.73;;;2.90;99.90;;;;;;4229788;28;20326;-61
2023/01/09 07:01:20;;;;;;;13.00;7.17;;;2.90;99.90;;;;;;4230705;28;20325;-60
2023/01/09 07:03:21;;;;;;;10.63;6.63;;;2.90;99.90;;;;;;4229681;28;20820;-59
2023/01/09 07:05:22;;;;;;;7.40;5.07;;;3.00;99.90;;;;;;4231047;28;20282;-60
2023/01/09 07:07:23;;;;;;;9.30;5.70;;;3.00;99.90;;;;;;4229628;28;20333;-60
2023/01/09 07:09:24;;;;;;;9.17;5.37;;;3.00;99.90;;;;;;4230670;28;20264;-60
2023/01/09 07:11:26;;;;;;;12.50;6.67;;;3.10;99.90;;;;;;4229572;28;20377;-59
2023/01/09 07:13:27;;;;;;;12.37;7.40;;;3.10;99.90;;;;;;4230468;28;20768;-60
2023/01/09 07:15:28;;;;;;;11.57;6.43;;;3.10;99.90;;;;;;4230078;28;20297;-60
2023/01/09 07:17:29;;;;;;;10.60;6.53;;;3.20;99.90;;;;;;4229967;28;20313;-60
2023/01/09 07:19:30;;;;;;;13.13;6.83;;;3.20;99.90;;;;;;4230126;28;20272;-58
2023/01/09 07:21:31;;;;;;;13.30;6.97;;;3.20;99.90;;;;;;4229550;28;20260;-60
2023/01/09 07:23:33;;;;;;;14.93;6.77;;;3.20;99.90;;;;;;4230809;28;20654;-59
2023/01/09 07:25:34;;;;;;;10.30;5.33;;;3.20;99.90;;;;;;4229665;28;20313;-59
2023/01/09 07:27:36;;;;;;;9.80;5.73;;;3.20;99.90;;;;;;4230742;28;20749;-57
2023/01/09 07:29:37;;;;;;;13.00;6.93;;;3.20;99.90;;;;;;4228590;28;20272;-60
2023/01/09 07:31:38;;;;;;;13.60;6.47;;;3.30;99.90;;;;;;4230394;28;20348;-60
2023/01/09 07:33:39;;;;;;;11.73;7.00;;;3.30;99.90;;;;;;4229320;28;20677;-60
2023/01/09 07:35:41;;;;;;;12.27;5.97;;;3.30;99.90;;;;;;4230212;28;20670;-60
2023/01/09 07:37:42;;;;;;;15.23;6.33;;;3.40;99.90;;;;;;4229362;28;20287;-60
2023/01/09 07:39:43;;;;;;;9.70;6.17;;;3.40;99.90;;;;;;4230041;28;20328;-63
2023/01/09 07:41:44;;;;;;;10.03;5.17;;;3.50;99.90;;;;;;4229373;28;20328;-59
2023/01/09 07:43:46;;;;;;;13.47;5.63;;;3.50;99.90;;;;;;4229898;28;20340;-63
2023/01/09 07:45:47;;;;;;;13.03;6.50;;;3.60;99.90;;;;;;4228102;28;20260;-58
2023/01/09 07:47:48;;;;;;;12.30;5.80;;;3.70;99.90;;;;;;4229481;28;20758;-59
2023/01/09 07:49:49;;;;;;;9.07;5.47;;;3.90;99.90;;;;;;4229573;28;20256;-61
2023/01/09 07:51:50;;;;;;;12.87;6.20;;;4.00;99.90;;;;;;4229096;28;20288;-63
2023/01/09 07:53:51;;;;;;;17.37;6.83;;;4.20;99.90;;;;;;4230180;28;20317;-64
2023/01/09 07:55:52;;;;;;;13.63;7.50;;;4.20;99.90;;;;;;4229290;28;20585;-61
2023/01/09 07:57:53;;;;;;;15.20;7.77;;;4.30;99.90;;;;;;4230168;28;20353;-61
2023/01/09 07:59:55;;;;;;;16.70;7.83;;;4.30;99.90;;;;;;4227529;28;20309;-62
2023/01/09 08:01:56;;;;;;;15.63;7.33;;;4.40;99.90;;;;;;4230082;28;20297;-60
2023/01/09 08:03:57;;;;;;;9.77;5.80;;;4.40;99.90;;;;;;4228815;28;20682;-61
2023/01/09 08:05:59;;;;;;;13.20;6.40;;;4.40;99.90;;;;;;4229894;28;20317;-64
2023/01/09 08:08:00;;;;;;;11.87;6.03;;;4.50;99.90;;;;;;4228746;28;20248;-62
2023/01/09 08:10:01;;;;;;;11.17;6.00;;;4.50;99.90;;;;;;4229924;28;20260;-61
2023/01/09 08:12:03;;;;;;;11.73;5.93;;;4.60;99.90;;;;;;4227502;28;20716;-59
2023/01/09 08:14:04;;;;;;;13.57;6.47;;;4.70;99.90;;;;;;4228965;28;20348;-61
2023/01/09 08:16:06;;;;;;;11.23;5.60;;;4.70;99.90;;;;;;4228904;28;20027;-61
2023/01/09 08:18:07;;;;;;;10.70;6.13;;;4.80;99.90;;;;;;4229123;28;20077;-60
2023/01/09 08:20:13;;;;;;;13.70;6.17;;;4.80;99.90;;;;;;4229392;28;20758;-61
2023/01/09 08:22:14;;;;;;;11.40;6.33;;;4.70;99.90;;;;;;4229050;28;20264;-62
2023/01/09 08:24:15;;;;;;;10.23;5.93;;;4.70;99.90;;;;;;4229473;28;20305;-61
2023/01/09 08:26:18;;;;;;;14.87;6.93;;;4.70;99.90;;;;;;4228725;28;20140;-61
2023/01/09 08:28:19;;;;;;;9.13;5.33;;;4.70;99.90;;;;;;4229891;28;20105;-60
2023/01/09 08:30:20;;;;;;;11.27;5.77;;;4.80;99.90;;;;;;4228169;28;20260;-61
2023/01/09 08:32:21;;;;;;;10.63;6.17;;;4.70;99.90;;;;;;4229441;28;20256;-61
2023/01/09 08:34:22;;;;;;;11.13;6.30;;;4.80;99.90;;;;;;4228056;28;20765;-60
2023/01/09 08:36:24;;;;;;;9.77;5.87;;;4.70;99.90;;;;;;4229334;28;20272;-61
2023/01/09 08:38:25;;;;;;;9.20;6.00;;;4.70;99.90;;;;;;4228252;28;20313;-61
2023/01/09 08:40:26;;;;;;;18.50;6.77;;;4.70;99.90;;;;;;4229632;28;20035;-61
2023/01/09 08:47:07;;;;;;;9.60;6.30;;;4.70;99.90;;;;;;4228467;28;20585;-58
2023/01/09 08:49:08;;;;;;;14.27;6.20;;;4.80;99.90;;;;;;4229322;28;20681;-61
2023/01/09 08:51:09;;;;;;;12.50;6.47;;;4.80;99.90;;;;;;4228024;28;20288;-59
2023/01/09 08:53:11;;;;;;;8.57;5.83;;;4.80;99.90;;;;;;4228933;28;20023;-60
2023/01/09 08:55:12;;;;;;;10.07;5.03;;;4.90;99.90;;;;;;4227787;28;20252;-59
2023/01/09 08:57:13;;;;;;;11.43;5.13;;;4.90;99.90;;;;;;4228887;28;20459;-62
2023/01/09 08:59:15;;;;;;;9.47;5.40;;;4.90;99.90;;;;;;4228537;28;20712;-59
2023/01/09 09:01:17;;;;;;;10.13;5.20;;;5.00;99.90;;;;;;4228156;28;20044;-60
2023/01/09 09:03:18;;;;;;;10.30;6.00;;;5.00;99.90;;;;;;4228681;28;20027;-60
2023/01/09 09:05:21;;;;;;;11.90;5.13;;;5.00;99.90;;;;;;4227884;28;20020;-61
2023/01/09 09:07:25;;;;;;;7.60;4.77;;;5.00;99.90;;;;;;4229260;28;20065;-60
2023/01/09 09:09:26;;;;;;;7.37;4.50;;;5.10;99.90;;;;;;4227759;28;20260;-60
2023/01/09 09:11:31;;;;;;;8.07;5.13;;;5.10;99.90;;;;;;4228311;28;20103;-59
2023/01/09 09:13:32;;;;;;;9.37;4.90;;;5.20;99.90;;;;;;4227519;28;20272;-62
2023/01/09 09:15:34;;;;;;;10.20;5.50;;;5.20;99.90;;;;;;4228249;28;20051;-61
2023/01/09 09:17:35;;;;;;;11.17;5.80;;;5.30;99.90;;;;;;4227492;28;20184;-61
2023/01/09 09:19:38;;;;;;;8.67;5.20;;;5.40;99.90;;;;;;4228276;28;20027;-60
2023/01/09 09:21:39;;;;;;;10.17;6.37;;;5.50;99.90;;;;;;4227317;28;20024;-63
2023/01/09 09:23:40;;;;;;;12.10;6.30;;;5.60;99.90;;;;;;4228607;28;20031;-61
2023/01/09 09:25:42;;;;;;;11.17;6.97;;;5.60;99.90;;;;;;4227411;28;20084;-60
2023/01/09 09:27:44;;;;;;;18.83;6.53;;;5.70;99.90;;;;;;4228569;28;20172;-60
2023/01/09 09:29:45;;;;;;;11.33;6.10;;;5.90;99.90;;;;;;4227119;28;20081;-61
2023/01/09 09:31:46;;;;;;;11.83;6.03;;;5.90;99.90;;;;;;4227646;28;20445;-63
2023/01/09 09:33:47;;;;;;;15.10;7.57;;;5.90;99.90;;;;;;4227845;28;20165;-62
2023/01/09 09:35:48;;;;;;;14.90;7.97;;;6.00;99.90;;;;;;4227206;28;20035;-61
2023/01/09 09:37:54;;;;;;;10.83;6.63;;;6.10;99.90;;;;;;4227970;28;20100;-61
2023/01/09 09:39:56;;;;;;;9.87;6.07;;;6.10;99.90;;;;;;4226858;28;20192;-61
2023/01/09 09:44:45;;;;;;;12.40;5.87;;;6.30;99.90;;;;;;4227477;28;20468;-61
2023/01/09 09:46:57;;;;;;;15.30;6.30;;;6.40;99.90;;;;;;4227665;28;20076;-62
2023/01/09 09:49:20;;;;;;;20.17;7.50;;;6.40;99.90;;;;;;4227606;28;20096;-62
2023/01/09 09:51:55;;;;;;;15.90;5.83;;;6.40;99.90;;;;;;4227144;28;20397;-61
2023/01/09 09:54:01;;;;;;;9.67;5.60;;;6.40;99.90;;;;;;4228234;28;20023;-60
2023/01/09 09:56:04;;;;;;;10.77;5.80;;;6.40;99.90;;;;;;4226911;28;20028;-60
2023/01/09 09:58:33;;;;;;;10.37;5.63;;;6.40;99.90;;;;;;4227981;28;20495;-62
2023/01/09 10:00:34;;;;;;;12.93;6.17;;;6.50;99.90;;;;;;4226476;28;20035;-62
2023/01/09 10:03:02;;;;;;;20.90;7.00;;;6.50;99.90;;;;;;4228137;28;20065;-61
2023/01/09 10:05:25;;;;;;;13.63;6.60;;;6.70;99.90;;;;;;4218334;28;20089;-61
2023/01/09 10:07:34;;;;;;;12.43;7.33;;;6.80;99.90;;;;;;4227990;28;20032;-61
2023/01/09 10:09:55;;;;;;;11.80;6.77;;;6.90;99.90;;;;;;4226933;28;20031;-61
2023/01/09 10:12:15;;;;;;;11.03;5.40;;;6.90;99.90;;;;;;4227909;28;20069;-61
2023/01/09 10:14:16;;;;;;;9.93;6.00;;;6.90;99.90;;;;;;4226674;28;20112;-61
2023/01/09 10:16:41;;;;;;;10.80;6.70;;;7.00;99.90;;;;;;4227809;28;20093;-61
2023/01/09 10:19:06;;;;;;;8.07;5.27;;;7.10;99.90;;;;;;4226563;28;20032;-65
2023/01/09 10:21:26;;;;;;;18.93;4.83;;;7.10;99.90;;;;;;4227693;28;20536;-61
2023/01/09 10:23:58;;;;;;;13.73;5.30;;;7.20;99.90;;;;;;4226010;28;20035;-60
2023/01/09 10:26:11;;;;;;;20.77;5.73;;;7.20;99.90;;;;;;4227152;28;20032;-62
2023/01/09 10:28:39;;;;;;;8.20;3.73;;;7.30;99.90;;;;;;4227989;28;20485;-61
2023/01/09 10:31:18;;;;;;;8.40;4.30;;;7.50;99.90;;;;;;4226535;28;20035;-61
2023/01/09 10:33:25;;;;;;;9.87;5.23;;;7.50;99.90;;;;;;4175623;28;20092;-61
2023/01/09 10:35:50;;;;;;;14.17;5.70;;;7.50;99.90;;;;;;4226094;28;20124;-61
2023/01/09 10:37:54;;;;;;;6.80;4.30;;;7.50;99.90;;;;;;4227592;28;20390;-62
2023/01/09 10:40:06;;;;;;;10.70;4.23;;;7.40;99.90;;;;;;4226560;28;20084;-62
2023/01/09 10:42:22;;;;;;;7.47;3.97;;;7.30;99.90;;;;;;4227650;28;20156;-62
2023/01/09 10:44:36;;;;;;;6.07;3.83;;;7.30;99.90;;;;;;4226103;28;20035;-62
2023/01/09 10:46:45;;;;;;;9.13;4.40;;;7.40;99.90;;;;;;4227214;28;20487;-59
2023/01/09 10:48:54;;;;;;;6.43;3.97;;;7.30;99.90;;;;;;4226094;28;20093;-61
2023/01/09 10:50:56;;;;;;;9.53;5.20;;;7.30;99.90;;;;;;4227500;28;20067;-62
2023/01/09 10:52:58;;;;;;;12.17;5.77;;;7.20;99.90;;;;;;4226477;28;20036;-62
2023/01/09 10:55:20;;;;;;;9.17;5.40;;;7.20;99.90;;;;;;4227286;28;21488;-61
2023/01/09 10:57:39;;;;;;;13.80;5.80;;;7.20;99.90;;;;;;4226073;28;20016;-62
2023/01/09 10:59:41;;;;;;;12.03;5.83;;;7.20;99.90;;;;;;4227541;28;20502;-62